sensor_id;sensor_type;location;lat;lon;timestamp;temperature;humidity
69503;SHT31;56704;54.242;12.442;2022-10-18T00:00:48;14.67;94.51
69503;SHT31;56704;54.242;12.442;2022-10-18T00:03:15;14.65;94.54
69503;SHT31;56704;54.242;12.442;2022-10-18T00:05:41;14.69;94.58
69503;SHT31;56704;54.242;12.442;2022-10-18T00:08:09;14.71;94.46
69503;SHT31;56704;54.242;12.442;2022-10-18T00:10:36;14.71;94.38
69503;SHT31;56704;54.242;12.442;2022-10-18T00:13:02;14.75;94.30
69503;SHT31;56704;54.242;12.442;2022-10-18T00:15:29;14.78;94.28
69503;SHT31;56704;54.242;12.442;2022-10-18T00:17:55;14.78;94.39
69503;SHT31;56704;54.242;12.442;2022-10-18T00:20:22;14.84;94.02
69503;SHT31;56704;54.242;12.442;2022-10-18T00:22:48;14.84;94.12
69503;SHT31;56704;54.242;12.442;2022-10-18T00:25:17;14.84;94.36
69503;SHT31;56704;54.242;12.442;2022-10-18T00:27:44;14.88;94.48
69503;SHT31;56704;54.242;12.442;2022-10-18T00:30:10;14.85;94.36
69503;SHT31;56704;54.242;12.442;2022-10-18T00:32:37;14.87;94.05
69503;SHT31;56704;54.242;12.442;2022-10-18T00:35:05;14.89;94.11
69503;SHT31;56704;54.242;12.442;2022-10-18T00:37:32;14.88;94.10
69503;SHT31;56704;54.242;12.442;2022-10-18T00:39:59;14.89;94.07
69503;SHT31;56704;54.242;12.442;2022-10-18T00:42:29;14.91;94.04
69503;SHT31;56704;54.242;12.442;2022-10-18T00:45:06;14.88;94.11
69503;SHT31;56704;54.242;12.442;2022-10-18T00:47:37;14.84;94.08
69503;SHT31;56704;54.242;12.442;2022-10-18T00:50:05;14.82;93.94
69503;SHT31;56704;54.242;12.442;2022-10-18T00:52:35;14.78;94.30
69503;SHT31;56704;54.242;12.442;2022-10-18T00:55:04;14.75;94.27
69503;SHT31;56704;54.242;12.442;2022-10-18T00:57:32;14.72;94.29
69503;SHT31;56704;54.242;12.442;2022-10-18T01:00:00;14.67;94.51
69503;SHT31;56704;54.242;12.442;2022-10-18T01:02:27;14.68;94.59
69503;SHT31;56704;54.242;12.442;2022-10-18T01:04:53;14.68;94.55
69503;SHT31;56704;54.242;12.442;2022-10-18T01:07:33;14.63;94.56
69503;SHT31;56704;54.242;12.442;2022-10-18T01:10:10;14.61;94.56
69503;SHT31;56704;54.242;12.442;2022-10-18T01:12:48;14.60;94.63
69503;SHT31;56704;54.242;12.442;2022-10-18T01:15:24;14.57;94.83
69503;SHT31;56704;54.242;12.442;2022-10-18T01:17:58;14.56;94.70
69503;SHT31;56704;54.242;12.442;2022-10-18T01:20:43;14.51;94.90
69503;SHT31;56704;54.242;12.442;2022-10-18T01:23:21;14.47;94.99
69503;SHT31;56704;54.242;12.442;2022-10-18T01:25:59;14.44;95.04
69503;SHT31;56704;54.242;12.442;2022-10-18T01:28:42;14.41;95.09
69503;SHT31;56704;54.242;12.442;2022-10-18T01:31:18;14.37;94.98
69503;SHT31;56704;54.242;12.442;2022-10-18T01:33:47;14.34;95.13
69503;SHT31;56704;54.242;12.442;2022-10-18T01:36:20;14.30;95.12
69503;SHT31;56704;54.242;12.442;2022-10-18T01:38:50;14.26;95.23
69503;SHT31;56704;54.242;12.442;2022-10-18T01:41:19;14.27;95.19
69503;SHT31;56704;54.242;12.442;2022-10-18T01:43:49;14.27;95.11
69503;SHT31;56704;54.242;12.442;2022-10-18T01:46:21;14.26;95.00
69503;SHT31;56704;54.242;12.442;2022-10-18T01:48:49;14.23;95.15
69503;SHT31;56704;54.242;12.442;2022-10-18T01:51:18;14.21;95.29
69503;SHT31;56704;54.242;12.442;2022-10-18T01:53:45;14.20;95.17
69503;SHT31;56704;54.242;12.442;2022-10-18T01:56:26;14.17;95.17
69503;SHT31;56704;54.242;12.442;2022-10-18T01:59:04;14.17;95.25
69503;SHT31;56704;54.242;12.442;2022-10-18T02:01:40;14.17;95.33
69503;SHT31;56704;54.242;12.442;2022-10-18T02:04:18;14.14;95.42
69503;SHT31;56704;54.242;12.442;2022-10-18T02:06:49;14.10;95.39
69503;SHT31;56704;54.242;12.442;2022-10-18T02:09:20;14.10;95.32
69503;SHT31;56704;54.242;12.442;2022-10-18T02:11:50;14.09;95.38
69503;SHT31;56704;54.242;12.442;2022-10-18T02:14:20;14.07;95.34
69503;SHT31;56704;54.242;12.442;2022-10-18T02:16:50;14.07;95.39
69503;SHT31;56704;54.242;12.442;2022-10-18T02:19:21;14.05;95.33
69503;SHT31;56704;54.242;12.442;2022-10-18T02:21:52;14.05;95.36
69503;SHT31;56704;54.242;12.442;2022-10-18T02:24:23;14.00;95.42
69503;SHT31;56704;54.242;12.442;2022-10-18T02:26:51;14.03;95.38
69503;SHT31;56704;54.242;12.442;2022-10-18T02:29:17;14.02;95.32
69503;SHT31;56704;54.242;12.442;2022-10-18T02:31:46;14.02;95.35
69503;SHT31;56704;54.242;12.442;2022-10-18T02:34:19;13.98;95.31
69503;SHT31;56704;54.242;12.442;2022-10-18T02:36:48;14.00;95.33
69503;SHT31;56704;54.242;12.442;2022-10-18T02:39:18;13.99;95.33
69503;SHT31;56704;54.242;12.442;2022-10-18T02:41:45;13.96;95.21
69503;SHT31;56704;54.242;12.442;2022-10-18T02:44:12;13.95;95.23
69503;SHT31;56704;54.242;12.442;2022-10-18T02:46:39;13.93;95.19
69503;SHT31;56704;54.242;12.442;2022-10-18T02:49:06;13.90;95.26
69503;SHT31;56704;54.242;12.442;2022-10-18T02:51:37;13.86;95.31
69503;SHT31;56704;54.242;12.442;2022-10-18T02:54:03;13.85;95.35
69503;SHT31;56704;54.242;12.442;2022-10-18T02:56:30;13.82;95.42
69503;SHT31;56704;54.242;12.442;2022-10-18T02:58:57;13.82;95.41
69503;SHT31;56704;54.242;12.442;2022-10-18T03:01:23;13.80;95.30
69503;SHT31;56704;54.242;12.442;2022-10-18T03:03:50;13.83;95.25
69503;SHT31;56704;54.242;12.442;2022-10-18T03:06:16;13.82;95.33
69503;SHT31;56704;54.242;12.442;2022-10-18T03:08:44;13.78;95.44
69503;SHT31;56704;54.242;12.442;2022-10-18T03:11:11;13.69;95.37
69503;SHT31;56704;54.242;12.442;2022-10-18T03:13:37;13.69;95.51
69503;SHT31;56704;54.242;12.442;2022-10-18T03:16:04;13.69;95.55
69503;SHT31;56704;54.242;12.442;2022-10-18T03:18:31;13.69;95.58
69503;SHT31;56704;54.242;12.442;2022-10-18T03:20:57;13.65;95.47
69503;SHT31;56704;54.242;12.442;2022-10-18T03:23:24;13.68;95.62
69503;SHT31;56704;54.242;12.442;2022-10-18T03:25:51;13.61;95.59
69503;SHT31;56704;54.242;12.442;2022-10-18T03:28:18;13.62;95.60
69503;SHT31;56704;54.242;12.442;2022-10-18T03:30:44;13.59;95.64
69503;SHT31;56704;54.242;12.442;2022-10-18T03:33:11;13.58;95.73
69503;SHT31;56704;54.242;12.442;2022-10-18T03:35:38;13.52;95.81
69503;SHT31;56704;54.242;12.442;2022-10-18T03:38:04;13.54;95.95
69503;SHT31;56704;54.242;12.442;2022-10-18T03:40:31;13.48;95.91
69503;SHT31;56704;54.242;12.442;2022-10-18T03:42:58;13.47;96.02
69503;SHT31;56704;54.242;12.442;2022-10-18T03:45:25;13.44;96.01
69503;SHT31;56704;54.242;12.442;2022-10-18T03:47:52;13.41;96.06
69503;SHT31;56704;54.242;12.442;2022-10-18T03:50:18;13.42;96.08
69503;SHT31;56704;54.242;12.442;2022-10-18T03:52:44;13.37;96.13
69503;SHT31;56704;54.242;12.442;2022-10-18T03:55:11;13.37;96.29
69503;SHT31;56704;54.242;12.442;2022-10-18T03:57:37;13.30;96.24
69503;SHT31;56704;54.242;12.442;2022-10-18T04:00:15;13.28;96.32
69503;SHT31;56704;54.242;12.442;2022-10-18T04:02:42;13.25;96.41
69503;SHT31;56704;54.242;12.442;2022-10-18T04:05:08;13.24;96.35
69503;SHT31;56704;54.242;12.442;2022-10-18T04:07:35;13.22;96.43
69503;SHT31;56704;54.242;12.442;2022-10-18T04:10:02;13.17;96.43
69503;SHT31;56704;54.242;12.442;2022-10-18T04:12:29;13.15;96.45
69503;SHT31;56704;54.242;12.442;2022-10-18T04:14:55;13.08;96.46
69503;SHT31;56704;54.242;12.442;2022-10-18T04:17:23;13.04;96.54
69503;SHT31;56704;54.242;12.442;2022-10-18T04:19:50;13.01;96.65
69503;SHT31;56704;54.242;12.442;2022-10-18T04:22:16;12.94;96.55
69503;SHT31;56704;54.242;12.442;2022-10-18T04:24:43;12.86;96.62
69503;SHT31;56704;54.242;12.442;2022-10-18T04:27:10;12.86;96.75
69503;SHT31;56704;54.242;12.442;2022-10-18T04:29:36;12.81;96.68
69503;SHT31;56704;54.242;12.442;2022-10-18T04:32:03;12.79;96.78
69503;SHT31;56704;54.242;12.442;2022-10-18T04:34:31;12.77;96.85
69503;SHT31;56704;54.242;12.442;2022-10-18T04:36:57;12.73;96.88
69503;SHT31;56704;54.242;12.442;2022-10-18T04:39:24;12.73;96.96
69503;SHT31;56704;54.242;12.442;2022-10-18T04:41:50;12.73;97.00
69503;SHT31;56704;54.242;12.442;2022-10-18T04:44:17;12.70;97.04
69503;SHT31;56704;54.242;12.442;2022-10-18T04:46:43;12.72;97.12
69503;SHT31;56704;54.242;12.442;2022-10-18T04:49:10;12.64;97.04
69503;SHT31;56704;54.242;12.442;2022-10-18T04:51:38;12.63;97.09
69503;SHT31;56704;54.242;12.442;2022-10-18T04:54:04;12.59;97.07
69503;SHT31;56704;54.242;12.442;2022-10-18T04:56:31;12.52;97.20
69503;SHT31;56704;54.242;12.442;2022-10-18T04:58:58;12.56;97.29
69503;SHT31;56704;54.242;12.442;2022-10-18T05:01:24;12.52;97.26
69503;SHT31;56704;54.242;12.442;2022-10-18T05:03:51;12.48;97.17
69503;SHT31;56704;54.242;12.442;2022-10-18T05:06:18;12.45;97.27
69503;SHT31;56704;54.242;12.442;2022-10-18T05:08:46;12.43;97.36
69503;SHT31;56704;54.242;12.442;2022-10-18T05:11:13;12.43;97.31
69503;SHT31;56704;54.242;12.442;2022-10-18T05:13:39;12.40;97.31
69503;SHT31;56704;54.242;12.442;2022-10-18T05:16:06;12.42;97.33
69503;SHT31;56704;54.242;12.442;2022-10-18T05:18:32;12.36;97.28
69503;SHT31;56704;54.242;12.442;2022-10-18T05:20:59;12.32;97.34
69503;SHT31;56704;54.242;12.442;2022-10-18T05:23:25;12.30;97.35
69503;SHT31;56704;54.242;12.442;2022-10-18T05:25:53;12.25;97.31
69503;SHT31;56704;54.242;12.442;2022-10-18T05:28:20;12.25;97.40
69503;SHT31;56704;54.242;12.442;2022-10-18T05:30:48;12.19;97.33
69503;SHT31;56704;54.242;12.442;2022-10-18T05:33:15;12.18;97.47
69503;SHT31;56704;54.242;12.442;2022-10-18T05:35:44;12.18;97.49
69503;SHT31;56704;54.242;12.442;2022-10-18T05:38:11;12.12;97.49
69503;SHT31;56704;54.242;12.442;2022-10-18T05:40:37;12.12;97.46
69503;SHT31;56704;54.242;12.442;2022-10-18T05:43:05;12.09;97.50
69503;SHT31;56704;54.242;12.442;2022-10-18T05:45:32;12.06;97.46
69503;SHT31;56704;54.242;12.442;2022-10-18T05:47:58;12.06;97.40
69503;SHT31;56704;54.242;12.442;2022-10-18T05:50:25;12.01;97.37
69503;SHT31;56704;54.242;12.442;2022-10-18T05:52:54;12.01;97.38
69503;SHT31;56704;54.242;12.442;2022-10-18T05:55:22;11.95;97.38
69503;SHT31;56704;54.242;12.442;2022-10-18T05:57:48;11.97;97.48
69503;SHT31;56704;54.242;12.442;2022-10-18T06:00:17;11.95;97.48
69503;SHT31;56704;54.242;12.442;2022-10-18T06:02:45;11.94;97.45
69503;SHT31;56704;54.242;12.442;2022-10-18T06:05:12;11.92;97.37
69503;SHT31;56704;54.242;12.442;2022-10-18T06:07:38;11.91;97.46
69503;SHT31;56704;54.242;12.442;2022-10-18T06:10:08;11.92;97.42
69503;SHT31;56704;54.242;12.442;2022-10-18T06:12:34;11.92;97.48
69503;SHT31;56704;54.242;12.442;2022-10-18T06:15:01;11.94;97.44
69503;SHT31;56704;54.242;12.442;2022-10-18T06:17:29;11.95;97.46
69503;SHT31;56704;54.242;12.442;2022-10-18T06:19:56;11.97;97.42
69503;SHT31;56704;54.242;12.442;2022-10-18T06:22:23;12.02;97.47
69503;SHT31;56704;54.242;12.442;2022-10-18T06:24:49;12.09;97.52
69503;SHT31;56704;54.242;12.442;2022-10-18T06:27:16;12.14;97.40
69503;SHT31;56704;54.242;12.442;2022-10-18T06:29:42;12.21;97.36
69503;SHT31;56704;54.242;12.442;2022-10-18T06:32:09;12.24;97.36
69503;SHT31;56704;54.242;12.442;2022-10-18T06:34:36;12.26;97.35
69503;SHT31;56704;54.242;12.442;2022-10-18T06:37:03;12.35;97.27
69503;SHT31;56704;54.242;12.442;2022-10-18T06:39:30;12.35;97.20
69503;SHT31;56704;54.242;12.442;2022-10-18T06:41:56;12.39;97.16
69503;SHT31;56704;54.242;12.442;2022-10-18T06:44:23;12.43;97.12
69503;SHT31;56704;54.242;12.442;2022-10-18T06:46:49;12.46;97.11
69503;SHT31;56704;54.242;12.442;2022-10-18T06:49:18;12.46;97.09
69503;SHT31;56704;54.242;12.442;2022-10-18T06:51:45;12.52;97.10
69503;SHT31;56704;54.242;12.442;2022-10-18T06:54:12;12.52;97.05
69503;SHT31;56704;54.242;12.442;2022-10-18T06:56:39;12.55;97.07
69503;SHT31;56704;54.242;12.442;2022-10-18T06:59:05;12.57;96.98
69503;SHT31;56704;54.242;12.442;2022-10-18T07:01:32;12.59;96.98
69503;SHT31;56704;54.242;12.442;2022-10-18T07:03:58;12.63;96.94
69503;SHT31;56704;54.242;12.442;2022-10-18T07:06:25;12.63;96.95
69503;SHT31;56704;54.242;12.442;2022-10-18T07:08:52;12.64;96.93
69503;SHT31;56704;54.242;12.442;2022-10-18T07:11:21;12.67;96.89
69503;SHT31;56704;54.242;12.442;2022-10-18T07:13:49;12.70;96.89
69503;SHT31;56704;54.242;12.442;2022-10-18T07:16:17;12.72;96.91
69503;SHT31;56704;54.242;12.442;2022-10-18T07:18:45;12.76;96.87
69503;SHT31;56704;54.242;12.442;2022-10-18T07:21:14;12.77;96.72
69503;SHT31;56704;54.242;12.442;2022-10-18T07:23:42;12.81;96.72
69503;SHT31;56704;54.242;12.442;2022-10-18T07:26:13;12.87;96.72
69503;SHT31;56704;54.242;12.442;2022-10-18T07:28:40;12.89;96.55
69503;SHT31;56704;54.242;12.442;2022-10-18T07:31:08;12.93;96.38
69503;SHT31;56704;54.242;12.442;2022-10-18T07:33:35;12.91;96.39
69503;SHT31;56704;54.242;12.442;2022-10-18T07:36:04;12.99;96.34
69503;SHT31;56704;54.242;12.442;2022-10-18T07:38:31;13.06;96.26
69503;SHT31;56704;54.242;12.442;2022-10-18T07:40:57;13.06;96.08
69503;SHT31;56704;54.242;12.442;2022-10-18T07:43:26;13.04;95.99
69503;SHT31;56704;54.242;12.442;2022-10-18T07:45:52;13.01;96.00
69503;SHT31;56704;54.242;12.442;2022-10-18T07:48:19;13.04;95.79
69503;SHT31;56704;54.242;12.442;2022-10-18T07:50:45;13.07;95.82
69503;SHT31;56704;54.242;12.442;2022-10-18T07:53:12;13.11;95.76
69503;SHT31;56704;54.242;12.442;2022-10-18T07:55:39;13.12;95.73
69503;SHT31;56704;54.242;12.442;2022-10-18T07:58:06;13.17;95.48
69503;SHT31;56704;54.242;12.442;2022-10-18T08:00:33;13.21;95.56
69503;SHT31;56704;54.242;12.442;2022-10-18T08:03:00;13.21;95.36
69503;SHT31;56704;54.242;12.442;2022-10-18T08:05:27;13.22;95.43
69503;SHT31;56704;54.242;12.442;2022-10-18T08:07:54;13.24;95.21
69503;SHT31;56704;54.242;12.442;2022-10-18T08:10:21;13.24;94.92
69503;SHT31;56704;54.242;12.442;2022-10-18T08:12:49;13.27;95.04
69503;SHT31;56704;54.242;12.442;2022-10-18T08:15:16;13.30;94.65
69503;SHT31;56704;54.242;12.442;2022-10-18T08:17:44;13.28;94.60
69503;SHT31;56704;54.242;12.442;2022-10-18T08:20:10;13.31;94.59
69503;SHT31;56704;54.242;12.442;2022-10-18T08:22:37;13.31;94.29
69503;SHT31;56704;54.242;12.442;2022-10-18T08:25:04;13.38;94.41
69503;SHT31;56704;54.242;12.442;2022-10-18T08:27:31;13.38;94.28
69503;SHT31;56704;54.242;12.442;2022-10-18T08:29:57;13.42;94.32
69503;SHT31;56704;54.242;12.442;2022-10-18T08:32:26;13.44;94.12
69503;SHT31;56704;54.242;12.442;2022-10-18T08:34:54;13.47;94.08
69503;SHT31;56704;54.242;12.442;2022-10-18T08:37:20;13.52;94.07
69503;SHT31;56704;54.242;12.442;2022-10-18T08:39:47;13.55;94.23
69503;SHT31;56704;54.242;12.442;2022-10-18T08:42:35;13.58;94.12
69503;SHT31;56704;54.242;12.442;2022-10-18T08:45:07;13.59;93.89
69503;SHT31;56704;54.242;12.442;2022-10-18T08:47:38;13.65;93.72
69503;SHT31;56704;54.242;12.442;2022-10-18T08:50:11;13.63;93.21
69503;SHT31;56704;54.242;12.442;2022-10-18T08:52:44;13.65;93.12
69503;SHT31;56704;54.242;12.442;2022-10-18T08:55:19;13.75;93.39
69503;SHT31;56704;54.242;12.442;2022-10-18T08:57:48;13.78;92.88
69503;SHT31;56704;54.242;12.442;2022-10-18T09:00:16;13.76;92.76
69503;SHT31;56704;54.242;12.442;2022-10-18T09:02:53;13.85;93.08
69503;SHT31;56704;54.242;12.442;2022-10-18T09:05:27;13.86;92.36
69503;SHT31;56704;54.242;12.442;2022-10-18T09:08:14;13.91;92.48
69503;SHT31;56704;54.242;12.442;2022-10-18T09:10:55;13.91;92.23
69503;SHT31;56704;54.242;12.442;2022-10-18T09:16:27;14.02;92.18
69503;SHT31;56704;54.242;12.442;2022-10-18T09:19:05;14.07;91.99
69503;SHT31;56704;54.242;12.442;2022-10-18T09:21:43;14.12;91.71
69503;SHT31;56704;54.242;12.442;2022-10-18T09:24:21;14.13;91.37
69503;SHT31;56704;54.242;12.442;2022-10-18T09:26:56;14.19;90.67
69503;SHT31;56704;54.242;12.442;2022-10-18T09:29:42;14.14;90.69
69503;SHT31;56704;54.242;12.442;2022-10-18T09:32:20;14.13;90.45
69503;SHT31;56704;54.242;12.442;2022-10-18T09:34:52;14.16;90.57
69503;SHT31;56704;54.242;12.442;2022-10-18T09:37:23;14.20;90.76
69503;SHT31;56704;54.242;12.442;2022-10-18T09:39:50;14.23;90.54
69503;SHT31;56704;54.242;12.442;2022-10-18T09:42:24;14.26;89.72
69503;SHT31;56704;54.242;12.442;2022-10-18T09:44:55;14.19;89.48
69503;SHT31;56704;54.242;12.442;2022-10-18T09:47:26;14.19;90.34
69503;SHT31;56704;54.242;12.442;2022-10-18T09:49:58;14.23;90.11
69503;SHT31;56704;54.242;12.442;2022-10-18T09:52:34;14.23;90.33
69503;SHT31;56704;54.242;12.442;2022-10-18T09:55:04;14.31;90.07
69503;SHT31;56704;54.242;12.442;2022-10-18T09:57:36;14.34;89.74
69503;SHT31;56704;54.242;12.442;2022-10-18T10:00:13;14.34;89.19
69503;SHT31;56704;54.242;12.442;2022-10-18T10:02:40;14.26;88.74
69503;SHT31;56704;54.242;12.442;2022-10-18T10:05:11;14.20;88.70
69503;SHT31;56704;54.242;12.442;2022-10-18T10:07:42;14.19;88.87
69503;SHT31;56704;54.242;12.442;2022-10-18T10:10:13;14.20;89.33
69503;SHT31;56704;54.242;12.442;2022-10-18T10:12:41;14.24;89.04
69503;SHT31;56704;54.242;12.442;2022-10-18T10:15:15;14.24;89.13
69503;SHT31;56704;54.242;12.442;2022-10-18T10:17:43;14.29;89.07
69503;SHT31;56704;54.242;12.442;2022-10-18T10:20:17;14.30;87.76
69503;SHT31;56704;54.242;12.442;2022-10-18T10:22:45;14.30;88.02
69503;SHT31;56704;54.242;12.442;2022-10-18T10:25:21;14.37;88.66
69503;SHT31;56704;54.242;12.442;2022-10-18T10:27:49;14.38;88.15
69503;SHT31;56704;54.242;12.442;2022-10-18T10:30:24;14.36;88.04
69503;SHT31;56704;54.242;12.442;2022-10-18T10:32:52;14.26;88.27
69503;SHT31;56704;54.242;12.442;2022-10-18T10:35:22;14.29;88.65
69503;SHT31;56704;54.242;12.442;2022-10-18T10:37:52;14.19;87.73
69503;SHT31;56704;54.242;12.442;2022-10-18T10:40:20;14.24;87.41
69503;SHT31;56704;54.242;12.442;2022-10-18T10:42:56;14.23;87.74
69503;SHT31;56704;54.242;12.442;2022-10-18T10:45:27;14.26;87.00
69503;SHT31;56704;54.242;12.442;2022-10-18T10:48:02;14.20;85.30
69503;SHT31;56704;54.242;12.442;2022-10-18T10:50:29;14.17;85.51
69503;SHT31;56704;54.242;12.442;2022-10-18T10:52:58;14.10;85.73
69503;SHT31;56704;54.242;12.442;2022-10-18T10:55:27;13.98;85.57
69503;SHT31;56704;54.242;12.442;2022-10-18T10:57:56;13.95;85.61
69503;SHT31;56704;54.242;12.442;2022-10-18T11:00:39;13.91;86.50
69503;SHT31;56704;54.242;12.442;2022-10-18T11:03:12;13.80;86.47
69503;SHT31;56704;54.242;12.442;2022-10-18T11:05:46;13.73;87.07
69503;SHT31;56704;54.242;12.442;2022-10-18T11:08:18;13.70;87.18
69503;SHT31;56704;54.242;12.442;2022-10-18T11:10:58;13.63;87.73
69503;SHT31;56704;54.242;12.442;2022-10-18T11:13:45;13.55;87.77
69503;SHT31;56704;54.242;12.442;2022-10-18T11:16:16;13.61;87.60
69503;SHT31;56704;54.242;12.442;2022-10-18T11:18:47;13.80;87.67
69503;SHT31;56704;54.242;12.442;2022-10-18T11:21:16;14.05;86.37
69503;SHT31;56704;54.242;12.442;2022-10-18T11:23:46;14.19;86.14
69503;SHT31;56704;54.242;12.442;2022-10-18T11:26:29;14.63;84.59
69503;SHT31;56704;54.242;12.442;2022-10-18T11:29:18;15.12;83.67
69503;SHT31;56704;54.242;12.442;2022-10-18T11:31:54;15.51;81.37
69503;SHT31;56704;54.242;12.442;2022-10-18T11:34:43;15.97;81.26
69503;SHT31;56704;54.242;12.442;2022-10-18T11:37:23;16.24;78.94
69503;SHT31;56704;54.242;12.442;2022-10-18T11:40:00;16.45;77.70
69503;SHT31;56704;54.242;12.442;2022-10-18T11:42:33;16.38;77.97
69503;SHT31;56704;54.242;12.442;2022-10-18T11:45:13;16.38;77.11
69503;SHT31;56704;54.242;12.442;2022-10-18T11:47:48;16.46;77.40
69503;SHT31;56704;54.242;12.442;2022-10-18T11:50:23;16.66;76.40
69503;SHT31;56704;54.242;12.442;2022-10-18T11:52:56;16.90;75.95
69503;SHT31;56704;54.242;12.442;2022-10-18T11:55:37;16.93;74.27
69503;SHT31;56704;54.242;12.442;2022-10-18T11:58:17;16.93;75.35
69503;SHT31;56704;54.242;12.442;2022-10-18T12:00:52;17.03;75.20
69503;SHT31;56704;54.242;12.442;2022-10-18T12:03:32;16.89;74.15
69503;SHT31;56704;54.242;12.442;2022-10-18T12:06:03;16.69;74.89
69503;SHT31;56704;54.242;12.442;2022-10-18T12:08:34;16.79;75.07
69503;SHT31;56704;54.242;12.442;2022-10-18T12:11:08;16.87;74.69
69503;SHT31;56704;54.242;12.442;2022-10-18T12:13:42;16.81;73.62
69503;SHT31;56704;54.242;12.442;2022-10-18T12:16:10;16.93;73.08
69503;SHT31;56704;54.242;12.442;2022-10-18T12:18:46;16.97;71.95
69503;SHT31;56704;54.242;12.442;2022-10-18T12:21:13;17.21;71.64
69503;SHT31;56704;54.242;12.442;2022-10-18T12:23:43;17.34;70.75
69503;SHT31;56704;54.242;12.442;2022-10-18T12:26:12;17.30;70.47
69503;SHT31;56704;54.242;12.442;2022-10-18T12:28:46;17.24;69.98
69503;SHT31;56704;54.242;12.442;2022-10-18T12:31:20;17.07;71.64
69503;SHT31;56704;54.242;12.442;2022-10-18T12:33:50;17.07;72.25
69503;SHT31;56704;54.242;12.442;2022-10-18T12:36:47;17.14;72.82
69503;SHT31;56704;54.242;12.442;2022-10-18T12:39:23;17.30;72.52
69503;SHT31;56704;54.242;12.442;2022-10-18T12:41:54;17.31;70.84
69503;SHT31;56704;54.242;12.442;2022-10-18T12:44:24;17.32;70.22
69503;SHT31;56704;54.242;12.442;2022-10-18T12:46:54;17.32;69.69
69503;SHT31;56704;54.242;12.442;2022-10-18T12:49:25;17.02;70.51
69503;SHT31;56704;54.242;12.442;2022-10-18T12:51:54;16.83;70.78
69503;SHT31;56704;54.242;12.442;2022-10-18T12:54:24;16.83;71.90
69503;SHT31;56704;54.242;12.442;2022-10-18T12:56:53;16.97;71.31
69503;SHT31;56704;54.242;12.442;2022-10-18T12:59:50;16.97;70.92
69503;SHT31;56704;54.242;12.442;2022-10-18T13:02:20;17.17;71.65
69503;SHT31;56704;54.242;12.442;2022-10-18T13:04:47;17.18;71.19
69503;SHT31;56704;54.242;12.442;2022-10-18T13:07:20;17.42;70.62
69503;SHT31;56704;54.242;12.442;2022-10-18T13:13:43;17.49;69.69
69503;SHT31;56704;54.242;12.442;2022-10-18T13:16:27;17.55;69.04
69503;SHT31;56704;54.242;12.442;2022-10-18T13:18:59;17.42;68.96
69503;SHT31;56704;54.242;12.442;2022-10-18T13:21:38;17.48;70.53
69503;SHT31;56704;54.242;12.442;2022-10-18T13:24:22;17.65;68.94
69503;SHT31;56704;54.242;12.442;2022-10-18T13:27:16;17.78;68.68
69503;SHT31;56704;54.242;12.442;2022-10-18T13:30:04;17.69;68.35
69503;SHT31;56704;54.242;12.442;2022-10-18T13:32:46;17.58;68.29
69503;SHT31;56704;54.242;12.442;2022-10-18T13:35:43;17.35;68.66
69503;SHT31;56704;54.242;12.442;2022-10-18T13:38:46;17.47;68.20
69503;SHT31;56704;54.242;12.442;2022-10-18T13:41:25;17.32;69.77
69503;SHT31;56704;54.242;12.442;2022-10-18T13:44:10;17.48;70.05
69503;SHT31;56704;54.242;12.442;2022-10-18T13:49:59;17.49;67.52
69503;SHT31;56704;54.242;12.442;2022-10-18T13:52:37;17.57;67.01
69503;SHT31;56704;54.242;12.442;2022-10-18T13:55:21;17.65;67.85
69503;SHT31;56704;54.242;12.442;2022-10-18T13:57:57;17.45;66.98
69503;SHT31;56704;54.242;12.442;2022-10-18T14:00:46;17.23;68.12
69503;SHT31;56704;54.242;12.442;2022-10-18T14:03:48;17.03;67.62
69503;SHT31;56704;54.242;12.442;2022-10-18T14:06:22;16.83;68.57
69503;SHT31;56704;54.242;12.442;2022-10-18T14:08:53;16.66;69.73
69503;SHT31;56704;54.242;12.442;2022-10-18T14:11:26;16.63;69.72
69503;SHT31;56704;54.242;12.442;2022-10-18T14:14:01;16.83;70.19
69503;SHT31;56704;54.242;12.442;2022-10-18T14:16:34;16.99;68.74
69503;SHT31;56704;54.242;12.442;2022-10-18T14:19:16;17.16;68.40
69503;SHT31;56704;54.242;12.442;2022-10-18T14:21:52;17.23;68.33
69503;SHT31;56704;54.242;12.442;2022-10-18T14:24:23;16.90;68.50
69503;SHT31;56704;54.242;12.442;2022-10-18T14:27:10;16.53;69.94
69503;SHT31;56704;54.242;12.442;2022-10-18T14:29:38;16.29;70.64
69503;SHT31;56704;54.242;12.442;2022-10-18T14:32:07;16.07;72.04
69503;SHT31;56704;54.242;12.442;2022-10-18T14:34:35;16.02;72.25
69503;SHT31;56704;54.242;12.442;2022-10-18T14:37:03;15.88;73.02
69503;SHT31;56704;54.242;12.442;2022-10-18T14:39:30;15.81;72.85
69503;SHT31;56704;54.242;12.442;2022-10-18T14:41:57;15.70;73.63
69503;SHT31;56704;54.242;12.442;2022-10-18T14:44:25;15.59;74.14
69503;SHT31;56704;54.242;12.442;2022-10-18T14:46:58;15.49;74.37
69503;SHT31;56704;54.242;12.442;2022-10-18T14:49:25;15.39;74.75
69503;SHT31;56704;54.242;12.442;2022-10-18T14:51:54;15.42;75.19
69503;SHT31;56704;54.242;12.442;2022-10-18T14:54:28;15.70;74.42
69503;SHT31;56704;54.242;12.442;2022-10-18T14:56:56;15.74;72.98
69503;SHT31;56704;54.242;12.442;2022-10-18T14:59:25;15.70;73.78
69503;SHT31;56704;54.242;12.442;2022-10-18T15:01:55;15.67;73.40
69503;SHT31;56704;54.242;12.442;2022-10-18T15:04:23;15.51;73.70
69503;SHT31;56704;54.242;12.442;2022-10-18T15:06:55;15.44;74.54
69503;SHT31;56704;54.242;12.442;2022-10-18T15:09:23;15.38;75.18
69503;SHT31;56704;54.242;12.442;2022-10-18T15:11:50;15.32;75.42
69503;SHT31;56704;54.242;12.442;2022-10-18T15:14:19;15.23;75.86
69503;SHT31;56704;54.242;12.442;2022-10-18T15:16:47;15.12;76.71
69503;SHT31;56704;54.242;12.442;2022-10-18T15:19:27;15.05;76.93
69503;SHT31;56704;54.242;12.442;2022-10-18T15:21:56;15.02;77.19
69503;SHT31;56704;54.242;12.442;2022-10-18T15:24:31;14.93;77.87
69503;SHT31;56704;54.242;12.442;2022-10-18T15:27:01;14.85;78.11
69503;SHT31;56704;54.242;12.442;2022-10-18T15:29:34;14.75;78.73
69503;SHT31;56704;54.242;12.442;2022-10-18T15:32:18;14.64;79.07
69503;SHT31;56704;54.242;12.442;2022-10-18T15:34:46;14.56;79.27
69503;SHT31;56704;54.242;12.442;2022-10-18T15:37:26;14.54;79.49
69503;SHT31;56704;54.242;12.442;2022-10-18T15:40:34;14.56;79.31
69503;SHT31;56704;54.242;12.442;2022-10-18T15:43:03;14.50;79.40
69503;SHT31;56704;54.242;12.442;2022-10-18T15:45:36;14.40;79.41
69503;SHT31;56704;54.242;12.442;2022-10-18T15:48:18;14.31;79.54